sensor_id;sensor_type;location;lat;lon;timestamp;temperature;humidity
65058;HTU21D;51644;51.068;5.860;2023-02-28T00:00:25;1.95;67.78
65058;HTU21D;51644;51.068;5.860;2023-02-28T00:01:39;1.97;67.72
65058;HTU21D;51644;51.068;5.860;2023-02-28T00:02:39;1.95;67.72
65058;HTU21D;51644;51.068;5.860;2023-02-28T00:03:39;1.94;67.81
65058;HTU21D;51644;51.068;5.860;2023-02-28T00:04:41;1.95;67.90
65058;HTU21D;51644;51.068;5.860;2023-02-28T00:05:39;1.93;68.02
65058;HTU21D;51644;51.068;5.860;2023-02-28T00:06:39;1.88;68.14
65058;HTU21D;51644;51.068;5.860;2023-02-28T00:07:41;1.88;68.22
65058;HTU21D;51644;51.068;5.860;2023-02-28T00:08:44;1.86;68.36
65058;HTU21D;51644;51.068;5.860;2023-02-28T00:09:43;1.85;68.39
65058;HTU21D;51644;51.068;5.860;2023-02-28T00:10:42;1.84;68.37
65058;HTU21D;51644;51.068;5.860;2023-02-28T00:11:40;1.83;68.33
65058;HTU21D;51644;51.068;5.860;2023-02-28T00:12:40;1.84;68.36
65058;HTU21D;51644;51.068;5.860;2023-02-28T00:13:43;1.83;68.35
65058;HTU21D;51644;51.068;5.860;2023-02-28T00:14:46;1.83;68.40
65058;HTU21D;51644;51.068;5.860;2023-02-28T00:16:02;1.82;68.42
65058;HTU21D;51644;51.068;5.860;2023-02-28T00:17:01;1.83;68.39
65058;HTU21D;51644;51.068;5.860;2023-02-28T00:18:01;1.83;68.34
65058;HTU21D;51644;51.068;5.860;2023-02-28T00:18:59;1.82;68.34
65058;HTU21D;51644;51.068;5.860;2023-02-28T00:19:58;1.82;68.37
65058;HTU21D;51644;51.068;5.860;2023-02-28T00:21:13;1.80;68.39
65058;HTU21D;51644;51.068;5.860;2023-02-28T00:22:24;1.80;68.42
65058;HTU21D;51644;51.068;5.860;2023-02-28T00:23:23;1.79;68.39
65058;HTU21D;51644;51.068;5.860;2023-02-28T00:24:40;1.79;68.31
65058;HTU21D;51644;51.068;5.860;2023-02-28T00:25:53;1.79;68.41
65058;HTU21D;51644;51.068;5.860;2023-02-28T00:26:54;1.77;68.48
65058;HTU21D;51644;51.068;5.860;2023-02-28T00:27:52;1.76;68.55
65058;HTU21D;51644;51.068;5.860;2023-02-28T00:28:52;1.76;68.62
65058;HTU21D;51644;51.068;5.860;2023-02-28T00:29:54;1.76;68.66
65058;HTU21D;51644;51.068;5.860;2023-02-28T00:31:04;1.71;68.81
65058;HTU21D;51644;51.068;5.860;2023-02-28T00:32:04;1.72;68.81
65058;HTU21D;51644;51.068;5.860;2023-02-28T00:33:03;1.70;68.84
65058;HTU21D;51644;51.068;5.860;2023-02-28T00:34:01;1.69;68.87
65058;HTU21D;51644;51.068;5.860;2023-02-28T00:35:03;1.68;68.95
65058;HTU21D;51644;51.068;5.860;2023-02-28T00:36:04;1.68;69.03
65058;HTU21D;51644;51.068;5.860;2023-02-28T00:37:07;1.70;69.00
65058;HTU21D;51644;51.068;5.860;2023-02-28T00:38:21;1.67;69.10
65058;HTU21D;51644;51.068;5.860;2023-02-28T00:39:19;1.68;69.13
65058;HTU21D;51644;51.068;5.860;2023-02-28T00:40:18;1.66;69.22
65058;HTU21D;51644;51.068;5.860;2023-02-28T00:41:17;1.64;69.32
65058;HTU21D;51644;51.068;5.860;2023-02-28T00:42:27;1.62;69.52
65058;HTU21D;51644;51.068;5.860;2023-02-28T00:43:25;1.60;69.61
65058;HTU21D;51644;51.068;5.860;2023-02-28T00:44:24;1.60;69.63
65058;HTU21D;51644;51.068;5.860;2023-02-28T00:45:23;1.58;69.68
65058;HTU21D;51644;51.068;5.860;2023-02-28T00:46:22;1.57;69.69
65058;HTU21D;51644;51.068;5.860;2023-02-28T00:47:20;1.57;69.72
65058;HTU21D;51644;51.068;5.860;2023-02-28T00:48:19;1.57;69.78
65058;HTU21D;51644;51.068;5.860;2023-02-28T00:49:20;1.57;69.78
65058;HTU21D;51644;51.068;5.860;2023-02-28T00:50:20;1.55;69.81
65058;HTU21D;51644;51.068;5.860;2023-02-28T00:51:18;1.55;69.81
65058;HTU21D;51644;51.068;5.860;2023-02-28T00:52:17;1.54;69.80
65058;HTU21D;51644;51.068;5.860;2023-02-28T00:53:16;1.54;69.81
65058;HTU21D;51644;51.068;5.860;2023-02-28T00:54:30;1.52;69.87
65058;HTU21D;51644;51.068;5.860;2023-02-28T00:55:28;1.49;69.97
65058;HTU21D;51644;51.068;5.860;2023-02-28T00:56:27;1.49;70.04
65058;HTU21D;51644;51.068;5.860;2023-02-28T00:57:26;1.47;70.09
65058;HTU21D;51644;51.068;5.860;2023-02-28T00:58:24;1.47;70.07
65058;HTU21D;51644;51.068;5.860;2023-02-28T00:59:23;1.46;70.00
65058;HTU21D;51644;51.068;5.860;2023-02-28T01:00:25;1.46;69.97
65058;HTU21D;51644;51.068;5.860;2023-02-28T01:01:24;1.47;69.95
65058;HTU21D;51644;51.068;5.860;2023-02-28T01:02:26;1.45;69.97
65058;HTU21D;51644;51.068;5.860;2023-02-28T01:03:25;1.43;70.03
65058;HTU21D;51644;51.068;5.860;2023-02-28T01:04:24;1.42;70.16
65058;HTU21D;51644;51.068;5.860;2023-02-28T01:05:26;1.41;70.28
65058;HTU21D;51644;51.068;5.860;2023-02-28T01:07:30;1.37;70.44
65058;HTU21D;51644;51.068;5.860;2023-02-28T01:08:32;1.35;70.52
65058;HTU21D;51644;51.068;5.860;2023-02-28T01:09:34;1.34;70.66
65058;HTU21D;51644;51.068;5.860;2023-02-28T01:10:51;1.29;70.91
65058;HTU21D;51644;51.068;5.860;2023-02-28T01:11:56;1.29;71.01
65058;HTU21D;51644;51.068;5.860;2023-02-28T01:12:58;1.27;71.06
65058;HTU21D;51644;51.068;5.860;2023-02-28T01:13:56;1.25;71.10
65058;HTU21D;51644;51.068;5.860;2023-02-28T01:14:58;1.23;71.18
65058;HTU21D;51644;51.068;5.860;2023-02-28T01:15:57;1.22;71.20
65058;HTU21D;51644;51.068;5.860;2023-02-28T01:17:12;1.21;71.31
65058;HTU21D;51644;51.068;5.860;2023-02-28T01:18:15;1.20;71.35
65058;HTU21D;51644;51.068;5.860;2023-02-28T01:19:14;1.16;71.40
65058;HTU21D;51644;51.068;5.860;2023-02-28T01:20:14;1.13;71.47
65058;HTU21D;51644;51.068;5.860;2023-02-28T01:21:16;1.11;71.50
65058;HTU21D;51644;51.068;5.860;2023-02-28T01:22:18;1.09;71.58
65058;HTU21D;51644;51.068;5.860;2023-02-28T01:23:23;1.06;71.67
65058;HTU21D;51644;51.068;5.860;2023-02-28T01:24:25;1.05;71.74
65058;HTU21D;51644;51.068;5.860;2023-02-28T01:25:24;1.04;71.80
65058;HTU21D;51644;51.068;5.860;2023-02-28T01:26:23;1.02;71.86
65058;HTU21D;51644;51.068;5.860;2023-02-28T01:27:22;1.01;71.93
65058;HTU21D;51644;51.068;5.860;2023-02-28T01:28:21;0.97;71.99
65058;HTU21D;51644;51.068;5.860;2023-02-28T01:29:20;0.97;72.03
65058;HTU21D;51644;51.068;5.860;2023-02-28T01:30:18;0.96;72.01
65058;HTU21D;51644;51.068;5.860;2023-02-28T01:31:21;0.96;72.09
65058;HTU21D;51644;51.068;5.860;2023-02-28T01:32:21;0.95;72.16
65058;HTU21D;51644;51.068;5.860;2023-02-28T01:33:19;0.96;72.18
65058;HTU21D;51644;51.068;5.860;2023-02-28T01:34:21;0.97;72.15
65058;HTU21D;51644;51.068;5.860;2023-02-28T01:35:20;0.98;72.08
65058;HTU21D;51644;51.068;5.860;2023-02-28T01:36:23;0.97;72.12
65058;HTU21D;51644;51.068;5.860;2023-02-28T01:37:22;0.96;72.09
65058;HTU21D;51644;51.068;5.860;2023-02-28T01:38:21;0.94;72.13
65058;HTU21D;51644;51.068;5.860;2023-02-28T01:39:20;0.93;72.13
65058;HTU21D;51644;51.068;5.860;2023-02-28T01:40:18;0.90;72.22
65058;HTU21D;51644;51.068;5.860;2023-02-28T01:41:21;0.89;72.29
65058;HTU21D;51644;51.068;5.860;2023-02-28T01:42:20;0.87;72.26
65058;HTU21D;51644;51.068;5.860;2023-02-28T01:43:26;0.86;72.29
65058;HTU21D;51644;51.068;5.860;2023-02-28T01:45:03;0.83;72.35
65058;HTU21D;51644;51.068;5.860;2023-02-28T01:46:03;0.81;72.44
65058;HTU21D;51644;51.068;5.860;2023-02-28T01:47:04;0.81;72.53
65058;HTU21D;51644;51.068;5.860;2023-02-28T01:48:08;0.81;72.61
65058;HTU21D;51644;51.068;5.860;2023-02-28T01:49:16;0.80;72.63
65058;HTU21D;51644;51.068;5.860;2023-02-28T01:50:20;0.78;72.57
65058;HTU21D;51644;51.068;5.860;2023-02-28T01:51:46;0.75;72.57
65058;HTU21D;51644;51.068;5.860;2023-02-28T01:52:50;0.73;72.58
65058;HTU21D;51644;51.068;5.860;2023-02-28T01:53:57;0.69;72.56
65058;HTU21D;51644;51.068;5.860;2023-02-28T01:55:00;0.67;72.67
65058;HTU21D;51644;51.068;5.860;2023-02-28T01:56:05;0.62;72.80
65058;HTU21D;51644;51.068;5.860;2023-02-28T01:57:10;0.60;72.92
65058;HTU21D;51644;51.068;5.860;2023-02-28T01:58:10;0.60;72.96
65058;HTU21D;51644;51.068;5.860;2023-02-28T01:59:14;0.58;73.00
65058;HTU21D;51644;51.068;5.860;2023-02-28T02:00:23;0.57;73.06
65058;HTU21D;51644;51.068;5.860;2023-02-28T02:01:24;0.53;73.08
65058;HTU21D;51644;51.068;5.860;2023-02-28T02:02:26;0.53;73.10
65058;HTU21D;51644;51.068;5.860;2023-02-28T02:03:30;0.51;73.08
65058;HTU21D;51644;51.068;5.860;2023-02-28T02:04:37;0.50;73.13
65058;HTU21D;51644;51.068;5.860;2023-02-28T02:05:39;0.48;73.26
65058;HTU21D;51644;51.068;5.860;2023-02-28T02:06:44;0.50;73.35
65058;HTU21D;51644;51.068;5.860;2023-02-28T02:07:46;0.49;73.48
65058;HTU21D;51644;51.068;5.860;2023-02-28T02:08:48;0.49;73.54
65058;HTU21D;51644;51.068;5.860;2023-02-28T02:09:46;0.48;73.64
65058;HTU21D;51644;51.068;5.860;2023-02-28T02:11:00;0.48;73.67
65058;HTU21D;51644;51.068;5.860;2023-02-28T02:12:13;0.47;73.70
65058;HTU21D;51644;51.068;5.860;2023-02-28T02:17:55;0.40;73.76
65058;HTU21D;51644;51.068;5.860;2023-02-28T02:22:12;0.39;73.67
65058;HTU21D;51644;51.068;5.860;2023-02-28T02:23:33;0.39;73.77
65058;HTU21D;51644;51.068;5.860;2023-02-28T02:35:54;0.19;74.29
65058;HTU21D;51644;51.068;5.860;2023-02-28T02:37:00;0.15;74.28
65058;HTU21D;51644;51.068;5.860;2023-02-28T02:38:08;0.15;74.31
65058;HTU21D;51644;51.068;5.860;2023-02-28T02:41:34;0.12;74.44
65058;HTU21D;51644;51.068;5.860;2023-02-28T02:43:56;0.09;74.47
65058;HTU21D;51644;51.068;5.860;2023-02-28T02:45:23;0.07;74.53
65058;HTU21D;51644;51.068;5.860;2023-02-28T02:46:27;0.08;74.61
65058;HTU21D;51644;51.068;5.860;2023-02-28T02:47:31;0.07;74.69
65058;HTU21D;51644;51.068;5.860;2023-02-28T02:48:34;0.06;74.80
65058;HTU21D;51644;51.068;5.860;2023-02-28T02:49:36;0.07;74.91
65058;HTU21D;51644;51.068;5.860;2023-02-28T02:50:51;0.08;74.95
65058;HTU21D;51644;51.068;5.860;2023-02-28T02:51:53;0.08;75.02
65058;HTU21D;51644;51.068;5.860;2023-02-28T02:54:11;0.08;74.91
65058;HTU21D;51644;51.068;5.860;2023-02-28T02:55:15;0.08;74.88
65058;HTU21D;51644;51.068;5.860;2023-02-28T02:56:19;0.07;74.86
65058;HTU21D;51644;51.068;5.860;2023-02-28T02:57:31;0.05;74.85
65058;HTU21D;51644;51.068;5.860;2023-02-28T02:58:37;0.03;74.84
65058;HTU21D;51644;51.068;5.860;2023-02-28T02:59:42;0.02;74.83
65058;HTU21D;51644;51.068;5.860;2023-02-28T03:00:47;-0.00;74.83
65058;HTU21D;51644;51.068;5.860;2023-02-28T03:02:01;-0.00;74.82
65058;HTU21D;51644;51.068;5.860;2023-02-28T03:03:05;-0.00;74.86
65058;HTU21D;51644;51.068;5.860;2023-02-28T03:04:12;0.01;74.90
65058;HTU21D;51644;51.068;5.860;2023-02-28T03:05:39;0.02;74.99
65058;HTU21D;51644;51.068;5.860;2023-02-28T03:06:39;0.03;75.06
65058;HTU21D;51644;51.068;5.860;2023-02-28T03:07:38;0.05;75.10
65058;HTU21D;51644;51.068;5.860;2023-02-28T03:08:38;0.06;75.14
65058;HTU21D;51644;51.068;5.860;2023-02-28T03:09:37;0.07;75.17
65058;HTU21D;51644;51.068;5.860;2023-02-28T03:10:46;0.09;75.17
65058;HTU21D;51644;51.068;5.860;2023-02-28T03:11:52;0.10;75.18
65058;HTU21D;51644;51.068;5.860;2023-02-28T03:13:03;0.10;75.23
65058;HTU21D;51644;51.068;5.860;2023-02-28T03:15:34;0.09;75.31
65058;HTU21D;51644;51.068;5.860;2023-02-28T03:18:01;0.10;75.44
65058;HTU21D;51644;51.068;5.860;2023-02-28T03:20:40;0.14;75.35
65058;HTU21D;51644;51.068;5.860;2023-02-28T03:22:26;0.14;75.34
65058;HTU21D;51644;51.068;5.860;2023-02-28T03:23:45;0.15;75.32
65058;HTU21D;51644;51.068;5.860;2023-02-28T03:24:49;0.16;75.34
65058;HTU21D;51644;51.068;5.860;2023-02-28T03:26:13;0.15;75.42
65058;HTU21D;51644;51.068;5.860;2023-02-28T03:27:27;0.15;75.47
65058;HTU21D;51644;51.068;5.860;2023-02-28T03:29:43;0.15;75.49
65058;HTU21D;51644;51.068;5.860;2023-02-28T03:31:03;0.15;75.52
65058;HTU21D;51644;51.068;5.860;2023-02-28T03:32:29;0.19;75.50
65058;HTU21D;51644;51.068;5.860;2023-02-28T03:33:42;0.22;75.51
65058;HTU21D;51644;51.068;5.860;2023-02-28T03:34:56;0.24;75.48
65058;HTU21D;51644;51.068;5.860;2023-02-28T03:36:04;0.25;75.43
65058;HTU21D;51644;51.068;5.860;2023-02-28T03:37:13;0.27;75.41
65058;HTU21D;51644;51.068;5.860;2023-02-28T03:40:37;0.28;75.37
65058;HTU21D;51644;51.068;5.860;2023-02-28T03:41:57;0.28;75.43
65058;HTU21D;51644;51.068;5.860;2023-02-28T03:43:09;0.28;75.41
65058;HTU21D;51644;51.068;5.860;2023-02-28T03:44:23;0.27;75.45
65058;HTU21D;51644;51.068;5.860;2023-02-28T03:45:30;0.24;75.48
65058;HTU21D;51644;51.068;5.860;2023-02-28T03:46:36;0.24;75.50
65058;HTU21D;51644;51.068;5.860;2023-02-28T03:48:05;0.21;75.52
65058;HTU21D;51644;51.068;5.860;2023-02-28T03:49:16;0.20;75.54
65058;HTU21D;51644;51.068;5.860;2023-02-28T03:51:18;0.19;75.63
65058;HTU21D;51644;51.068;5.860;2023-02-28T03:52:25;0.17;75.67
65058;HTU21D;51644;51.068;5.860;2023-02-28T03:53:36;0.18;75.65
65058;HTU21D;51644;51.068;5.860;2023-02-28T03:54:43;0.16;75.76
65058;HTU21D;51644;51.068;5.860;2023-02-28T03:55:56;0.15;75.82
65058;HTU21D;51644;51.068;5.860;2023-02-28T03:59:43;0.13;75.79
65058;HTU21D;51644;51.068;5.860;2023-02-28T04:00:47;0.12;75.85
65058;HTU21D;51644;51.068;5.860;2023-02-28T04:01:57;0.12;75.90
65058;HTU21D;51644;51.068;5.860;2023-02-28T04:02:58;0.10;75.92
65058;HTU21D;51644;51.068;5.860;2023-02-28T04:03:57;0.10;75.95
65058;HTU21D;51644;51.068;5.860;2023-02-28T04:05:00;0.08;76.02
65058;HTU21D;51644;51.068;5.860;2023-02-28T04:05:59;0.07;76.09
65058;HTU21D;51644;51.068;5.860;2023-02-28T04:07:07;0.06;76.18
65058;HTU21D;51644;51.068;5.860;2023-02-28T04:08:07;0.04;76.25
65058;HTU21D;51644;51.068;5.860;2023-02-28T04:09:08;0.03;76.31
65058;HTU21D;51644;51.068;5.860;2023-02-28T04:10:09;0.02;76.38
65058;HTU21D;51644;51.068;5.860;2023-02-28T04:12:30;-0.01;76.53
65058;HTU21D;51644;51.068;5.860;2023-02-28T04:13:31;-0.02;76.55
65058;HTU21D;51644;51.068;5.860;2023-02-28T04:14:30;-0.05;76.61
65058;HTU21D;51644;51.068;5.860;2023-02-28T04:15:29;-0.08;76.61
65058;HTU21D;51644;51.068;5.860;2023-02-28T04:16:28;-0.11;76.56
65058;HTU21D;51644;51.068;5.860;2023-02-28T04:17:30;-0.12;76.54
65058;HTU21D;51644;51.068;5.860;2023-02-28T04:18:28;-0.15;76.55
65058;HTU21D;51644;51.068;5.860;2023-02-28T04:19:27;-0.17;76.57
65058;HTU21D;51644;51.068;5.860;2023-02-28T04:20:25;-0.20;76.62
65058;HTU21D;51644;51.068;5.860;2023-02-28T04:21:48;-0.21;76.75
65058;HTU21D;51644;51.068;5.860;2023-02-28T04:22:47;-0.22;76.82
65058;HTU21D;51644;51.068;5.860;2023-02-28T04:23:46;-0.22;76.86
65058;HTU21D;51644;51.068;5.860;2023-02-28T04:24:45;-0.22;76.87
65058;HTU21D;51644;51.068;5.860;2023-02-28T04:25:43;-0.23;76.94
65058;HTU21D;51644;51.068;5.860;2023-02-28T04:26:45;-0.22;76.97
65058;HTU21D;51644;51.068;5.860;2023-02-28T04:27:44;-0.24;77.02
65058;HTU21D;51644;51.068;5.860;2023-02-28T04:28:43;-0.23;77.04
65058;HTU21D;51644;51.068;5.860;2023-02-28T04:29:44;-0.22;77.08
65058;HTU21D;51644;51.068;5.860;2023-02-28T04:30:43;-0.21;77.06
65058;HTU21D;51644;51.068;5.860;2023-02-28T04:31:41;-0.21;77.04
65058;HTU21D;51644;51.068;5.860;2023-02-28T04:32:43;-0.22;77.06
65058;HTU21D;51644;51.068;5.860;2023-02-28T04:33:42;-0.22;77.09
65058;HTU21D;51644;51.068;5.860;2023-02-28T04:34:40;-0.22;77.11
65058;HTU21D;51644;51.068;5.860;2023-02-28T04:35:43;-0.21;77.07
65058;HTU21D;51644;51.068;5.860;2023-02-28T04:37:00;-0.22;77.06
65058;HTU21D;51644;51.068;5.860;2023-02-28T04:38:02;-0.22;77.08
65058;HTU21D;51644;51.068;5.860;2023-02-28T04:39:00;-0.23;77.13
65058;HTU21D;51644;51.068;5.860;2023-02-28T04:40:03;-0.24;77.13
65058;HTU21D;51644;51.068;5.860;2023-02-28T04:41:02;-0.25;77.17
65058;HTU21D;51644;51.068;5.860;2023-02-28T04:42:02;-0.26;77.21
65058;HTU21D;51644;51.068;5.860;2023-02-28T04:43:07;-0.27;77.22
65058;HTU21D;51644;51.068;5.860;2023-02-28T04:44:07;-0.25;77.26
65058;HTU21D;51644;51.068;5.860;2023-02-28T04:45:17;-0.26;77.29
65058;HTU21D;51644;51.068;5.860;2023-02-28T04:46:16;-0.26;77.28
65058;HTU21D;51644;51.068;5.860;2023-02-28T04:47:15;-0.25;77.27
65058;HTU21D;51644;51.068;5.860;2023-02-28T04:48:14;-0.26;77.28
65058;HTU21D;51644;51.068;5.860;2023-02-28T04:49:13;-0.27;77.29
65058;HTU21D;51644;51.068;5.860;2023-02-28T04:50:12;-0.28;77.27
65058;HTU21D;51644;51.068;5.860;2023-02-28T04:51:12;-0.28;77.34
65058;HTU21D;51644;51.068;5.860;2023-02-28T04:52:11;-0.30;77.40
65058;HTU21D;51644;51.068;5.860;2023-02-28T04:53:13;-0.31;77.44
65058;HTU21D;51644;51.068;5.860;2023-02-28T04:54:12;-0.31;77.47
65058;HTU21D;51644;51.068;5.860;2023-02-28T04:55:11;-0.31;77.44
65058;HTU21D;51644;51.068;5.860;2023-02-28T04:56:16;-0.31;77.37
65058;HTU21D;51644;51.068;5.860;2023-02-28T04:57:15;-0.31;77.35
65058;HTU21D;51644;51.068;5.860;2023-02-28T04:58:14;-0.34;77.37
65058;HTU21D;51644;51.068;5.860;2023-02-28T04:59:12;-0.34;77.44
65058;HTU21D;51644;51.068;5.860;2023-02-28T05:00:14;-0.37;77.48
65058;HTU21D;51644;51.068;5.860;2023-02-28T05:02:18;-0.39;77.52
65058;HTU21D;51644;51.068;5.860;2023-02-28T05:03:20;-0.42;77.52
65058;HTU21D;51644;51.068;5.860;2023-02-28T05:04:20;-0.44;77.53
65058;HTU21D;51644;51.068;5.860;2023-02-28T05:05:18;-0.44;77.54
65058;HTU21D;51644;51.068;5.860;2023-02-28T05:06:19;-0.46;77.53
65058;HTU21D;51644;51.068;5.860;2023-02-28T05:07:18;-0.47;77.58
65058;HTU21D;51644;51.068;5.860;2023-02-28T05:08:17;-0.47;77.66
65058;HTU21D;51644;51.068;5.860;2023-02-28T05:09:15;-0.47;77.71
65058;HTU21D;51644;51.068;5.860;2023-02-28T05:10:14;-0.47;77.69
65058;HTU21D;51644;51.068;5.860;2023-02-28T05:11:26;-0.46;77.74
65058;HTU21D;51644;51.068;5.860;2023-02-28T05:12:25;-0.47;77.66
65058;HTU21D;51644;51.068;5.860;2023-02-28T05:13:23;-0.45;77.60
65058;HTU21D;51644;51.068;5.860;2023-02-28T05:14:22;-0.45;77.53
65058;HTU21D;51644;51.068;5.860;2023-02-28T05:15:21;-0.45;77.61
65058;HTU21D;51644;51.068;5.860;2023-02-28T05:16:19;-0.46;77.54
65058;HTU21D;51644;51.068;5.860;2023-02-28T05:17:18;-0.47;77.60
65058;HTU21D;51644;51.068;5.860;2023-02-28T05:18:16;-0.49;77.67
65058;HTU21D;51644;51.068;5.860;2023-02-28T05:19:15;-0.47;77.73
65058;HTU21D;51644;51.068;5.860;2023-02-28T05:20:14;-0.51;77.76
65058;HTU21D;51644;51.068;5.860;2023-02-28T05:21:31;-0.52;77.77
65058;HTU21D;51644;51.068;5.860;2023-02-28T05:22:30;-0.56;77.85
65058;HTU21D;51644;51.068;5.860;2023-02-28T05:23:29;-0.57;77.86
65058;HTU21D;51644;51.068;5.860;2023-02-28T05:24:28;-0.58;77.89
65058;HTU21D;51644;51.068;5.860;2023-02-28T05:25:26;-0.57;77.89
65058;HTU21D;51644;51.068;5.860;2023-02-28T05:26:28;-0.58;77.88
65058;HTU21D;51644;51.068;5.860;2023-02-28T05:27:26;-0.60;77.81
65058;HTU21D;51644;51.068;5.860;2023-02-28T05:28:26;-0.61;77.82
65058;HTU21D;51644;51.068;5.860;2023-02-28T05:29:25;-0.61;77.84
65058;HTU21D;51644;51.068;5.860;2023-02-28T05:30:23;-0.61;77.86
65058;HTU21D;51644;51.068;5.860;2023-02-28T05:31:22;-0.60;77.89
65058;HTU21D;51644;51.068;5.860;2023-02-28T05:32:21;-0.59;77.92
65058;HTU21D;51644;51.068;5.860;2023-02-28T05:33:20;-0.60;77.85
65058;HTU21D;51644;51.068;5.860;2023-02-28T05:34:18;-0.57;77.79
65058;HTU21D;51644;51.068;5.860;2023-02-28T05:35:17;-0.57;77.72
65058;HTU21D;51644;51.068;5.860;2023-02-28T05:36:15;-0.56;77.64
65058;HTU21D;51644;51.068;5.860;2023-02-28T05:37:15;-0.55;77.60
65058;HTU21D;51644;51.068;5.860;2023-02-28T05:38:14;-0.56;77.57
65058;HTU21D;51644;51.068;5.860;2023-02-28T05:39:12;-0.54;77.53
65058;HTU21D;51644;51.068;5.860;2023-02-28T05:40:11;-0.56;77.50
65058;HTU21D;51644;51.068;5.860;2023-02-28T05:41:10;-0.56;77.47
65058;HTU21D;51644;51.068;5.860;2023-02-28T05:42:09;-0.55;77.41
65058;HTU21D;51644;51.068;5.860;2023-02-28T05:43:10;-0.55;77.37
65058;HTU21D;51644;51.068;5.860;2023-02-28T05:44:11;-0.54;77.27
65058;HTU21D;51644;51.068;5.860;2023-02-28T05:45:20;-0.55;77.27
65058;HTU21D;51644;51.068;5.860;2023-02-28T05:46:18;-0.55;77.24
65058;HTU21D;51644;51.068;5.860;2023-02-28T05:47:17;-0.54;77.24
65058;HTU21D;51644;51.068;5.860;2023-02-28T05:48:22;-0.55;77.21
65058;HTU21D;51644;51.068;5.860;2023-02-28T05:49:21;-0.55;77.21
65058;HTU21D;51644;51.068;5.860;2023-02-28T05:50:20;-0.55;77.20
65058;HTU21D;51644;51.068;5.860;2023-02-28T05:51:18;-0.55;77.15
65058;HTU21D;51644;51.068;5.860;2023-02-28T05:52:17;-0.55;77.13
65058;HTU21D;51644;51.068;5.860;2023-02-28T05:53:15;-0.55;77.16
65058;HTU21D;51644;51.068;5.860;2023-02-28T05:54:14;-0.56;77.11
65058;HTU21D;51644;51.068;5.860;2023-02-28T05:55:13;-0.55;77.08
65058;HTU21D;51644;51.068;5.860;2023-02-28T05:56:11;-0.56;77.11
65058;HTU21D;51644;51.068;5.860;2023-02-28T05:57:10;-0.56;77.15
65058;HTU21D;51644;51.068;5.860;2023-02-28T05:58:08;-0.58;77.15
65058;HTU21D;51644;51.068;5.860;2023-02-28T05:59:07;-0.58;77.16
65058;HTU21D;51644;51.068;5.860;2023-02-28T06:00:06;-0.59;77.12
65058;HTU21D;51644;51.068;5.860;2023-02-28T06:01:33;-0.59;77.08
65058;HTU21D;51644;51.068;5.860;2023-02-28T06:02:32;-0.58;77.10
65058;HTU21D;51644;51.068;5.860;2023-02-28T06:03:31;-0.60;77.08
65058;HTU21D;51644;51.068;5.860;2023-02-28T06:04:29;-0.60;77.04
65058;HTU21D;51644;51.068;5.860;2023-02-28T06:05:28;-0.60;77.05
65058;HTU21D;51644;51.068;5.860;2023-02-28T06:06:26;-0.60;77.04
65058;HTU21D;51644;51.068;5.860;2023-02-28T06:07:25;-0.59;77.02
65058;HTU21D;51644;51.068;5.860;2023-02-28T06:08:24;-0.60;76.98
65058;HTU21D;51644;51.068;5.860;2023-02-28T06:09:22;-0.60;77.02
65058;HTU21D;51644;51.068;5.860;2023-02-28T06:10:21;-0.59;76.96
65058;HTU21D;51644;51.068;5.860;2023-02-28T06:11:19;-0.60;76.95
65058;HTU21D;51644;51.068;5.860;2023-02-28T06:12:18;-0.61;76.89
65058;HTU21D;51644;51.068;5.860;2023-02-28T06:13:17;-0.59;76.83
65058;HTU21D;51644;51.068;5.860;2023-02-28T06:14:17;-0.60;76.82
65058;HTU21D;51644;51.068;5.860;2023-02-28T06:15:16;-0.61;76.86
65058;HTU21D;51644;51.068;5.860;2023-02-28T06:16:15;-0.62;76.85
65058;HTU21D;51644;51.068;5.860;2023-02-28T06:17:13;-0.62;76.87
65058;HTU21D;51644;51.068;5.860;2023-02-28T06:18:12;-0.61;76.79
65058;HTU21D;51644;51.068;5.860;2023-02-28T06:19:11;-0.61;76.75
65058;HTU21D;51644;51.068;5.860;2023-02-28T06:20:10;-0.62;76.73
65058;HTU21D;51644;51.068;5.860;2023-02-28T06:21:12;-0.61;76.70
65058;HTU21D;51644;51.068;5.860;2023-02-28T06:22:11;-0.62;76.65
65058;HTU21D;51644;51.068;5.860;2023-02-28T06:23:09;-0.61;76.57
65058;HTU21D;51644;51.068;5.860;2023-02-28T06:24:08;-0.61;76.49
65058;HTU21D;51644;51.068;5.860;2023-02-28T06:25:07;-0.62;76.55
65058;HTU21D;51644;51.068;5.860;2023-02-28T06:26:05;-0.62;76.52
65058;HTU21D;51644;51.068;5.860;2023-02-28T06:27:04;-0.61;76.53
65058;HTU21D;51644;51.068;5.860;2023-02-28T06:28:03;-0.61;76.52
65058;HTU21D;51644;51.068;5.860;2023-02-28T06:29:02;-0.61;76.53
65058;HTU21D;51644;51.068;5.860;2023-02-28T06:30:02;-0.60;76.47
65058;HTU21D;51644;51.068;5.860;2023-02-28T06:31:08;-0.60;76.49
65058;HTU21D;51644;51.068;5.860;2023-02-28T06:32:07;-0.60;76.44
65058;HTU21D;51644;51.068;5.860;2023-02-28T06:33:06;-0.60;76.41
65058;HTU21D;51644;51.068;5.860;2023-02-28T06:34:05;-0.61;76.40
65058;HTU21D;51644;51.068;5.860;2023-02-28T06:35:04;-0.60;76.34
65058;HTU21D;51644;51.068;5.860;2023-02-28T06:36:03;-0.61;76.38
65058;HTU21D;51644;51.068;5.860;2023-02-28T06:37:01;-0.61;76.41
65058;HTU21D;51644;51.068;5.860;2023-02-28T06:38:00;-0.61;76.37
65058;HTU21D;51644;51.068;5.860;2023-02-28T06:38:59;-0.61;76.37
65058;HTU21D;51644;51.068;5.860;2023-02-28T06:39:57;-0.61;76.31
65058;HTU21D;51644;51.068;5.860;2023-02-28T06:40:58;-0.61;76.39
65058;HTU21D;51644;51.068;5.860;2023-02-28T06:41:57;-0.61;76.36
65058;HTU21D;51644;51.068;5.860;2023-02-28T06:42:56;-0.61;76.34
65058;HTU21D;51644;51.068;5.860;2023-02-28T06:43:55;-0.60;76.34
65058;HTU21D;51644;51.068;5.860;2023-02-28T06:44:54;-0.58;76.23
65058;HTU21D;51644;51.068;5.860;2023-02-28T06:45:57;-0.57;76.18
65058;HTU21D;51644;51.068;5.860;2023-02-28T06:46:56;-0.57;76.10
65058;HTU21D;51644;51.068;5.860;2023-02-28T06:47:55;-0.55;75.95
65058;HTU21D;51644;51.068;5.860;2023-02-28T06:48:53;-0.55;75.93
65058;HTU21D;51644;51.068;5.860;2023-02-28T06:49:52;-0.53;75.84
65058;HTU21D;51644;51.068;5.860;2023-02-28T06:51:00;-0.53;75.78
65058;HTU21D;51644;51.068;5.860;2023-02-28T06:51:59;-0.52;75.76
65058;HTU21D;51644;51.068;5.860;2023-02-28T06:52:57;-0.51;75.70
65058;HTU21D;51644;51.068;5.860;2023-02-28T06:53:56;-0.49;75.62
65058;HTU21D;51644;51.068;5.860;2023-02-28T06:54:55;-0.49;75.61
65058;HTU21D;51644;51.068;5.860;2023-02-28T06:55:58;-0.45;75.54
65058;HTU21D;51644;51.068;5.860;2023-02-28T06:56:57;-0.45;75.44
65058;HTU21D;51644;51.068;5.860;2023-02-28T06:57:57;-0.43;75.37
65058;HTU21D;51644;51.068;5.860;2023-02-28T06:58:55;-0.42;75.28
65058;HTU21D;51644;51.068;5.860;2023-02-28T06:59:54;-0.41;75.20
65058;HTU21D;51644;51.068;5.860;2023-02-28T07:00:53;-0.39;75.13
65058;HTU21D;51644;51.068;5.860;2023-02-28T07:01:51;-0.40;75.06
65058;HTU21D;51644;51.068;5.860;2023-02-28T07:02:50;-0.38;75.03
65058;HTU21D;51644;51.068;5.860;2023-02-28T07:03:49;-0.36;74.95
65058;HTU21D;51644;51.068;5.860;2023-02-28T07:04:50;-0.37;74.94
65058;HTU21D;51644;51.068;5.860;2023-02-28T07:05:48;-0.36;74.90
65058;HTU21D;51644;51.068;5.860;2023-02-28T07:06:48;-0.32;74.83
65058;HTU21D;51644;51.068;5.860;2023-02-28T07:07:46;-0.32;74.86
65058;HTU21D;51644;51.068;5.860;2023-02-28T07:08:45;-0.30;74.79
65058;HTU21D;51644;51.068;5.860;2023-02-28T07:09:44;-0.28;74.72
65058;HTU21D;51644;51.068;5.860;2023-02-28T07:10:43;-0.27;74.66